createdAt,value
2018-07-06T00:00:44.767Z,3.50
2018-07-06T00:03:31.396Z,4.13
2018-07-06T00:06:17.866Z,3.93
2018-07-06T00:09:05.140Z,4.13
2018-07-06T00:11:51.495Z,3.77
2018-07-06T00:14:37.966Z,4.07
2018-07-06T00:17:18.474Z,2.70
2018-07-06T00:20:06.054Z,3.40
2018-07-06T00:22:46.576Z,3.90
2018-07-06T00:25:33.028Z,3.13
2018-07-06T00:28:13.398Z,3.20
2018-07-06T00:30:54.083Z,2.87
2018-07-06T00:33:40.383Z,3.30
2018-07-06T00:36:26.956Z,3.43
2018-07-06T00:39:07.437Z,3.20
2018-07-06T00:41:47.924Z,3.33
2018-07-06T00:44:34.421Z,2.90
2018-07-06T00:47:20.845Z,3.53
2018-07-06T00:50:07.262Z,3.30
2018-07-06T00:52:53.577Z,3.10
2018-07-06T00:55:39.878Z,2.70
2018-07-06T00:58:26.238Z,2.83
2018-07-06T01:01:12.617Z,3.60
2018-07-06T01:03:52.996Z,4.00
2018-07-06T01:06:40.508Z,3.40
2018-07-06T01:09:21.031Z,3.17
2018-07-06T01:12:13.080Z,2.83
2018-07-06T01:15:02.269Z,3.77
2018-07-06T01:17:42.872Z,3.30
2018-07-06T01:20:29.652Z,3.97
2018-07-06T01:23:10.092Z,3.20
2018-07-06T01:25:56.534Z,3.27
2018-07-06T01:28:43.010Z,3.67
2018-07-06T01:31:23.624Z,3.23
2018-07-06T01:34:10.157Z,3.23
2018-07-06T01:36:57.070Z,3.10
2018-07-06T01:39:43.519Z,3.73
2018-07-06T01:42:30.138Z,3.80
2018-07-06T01:45:16.882Z,3.87
2018-07-06T01:48:03.511Z,3.80
2018-07-06T01:50:50.057Z,4.30
2018-07-06T01:53:36.621Z,3.90
2018-07-06T01:56:23.067Z,4.00
2018-07-06T01:59:09.813Z,4.97
2018-07-06T02:01:56.195Z,4.10
2018-07-06T02:04:42.757Z,4.00
2018-07-06T02:07:29.293Z,4.10
2018-07-06T02:10:15.816Z,3.93
2018-07-06T02:13:02.402Z,4.70
2018-07-06T02:15:49.056Z,4.07
2018-07-06T02:18:29.478Z,3.90
2018-07-06T02:21:15.837Z,4.10
2018-07-06T02:24:02.671Z,4.30
2018-07-06T02:26:42.959Z,3.67
2018-07-06T02:29:29.877Z,5.10
2018-07-06T02:32:16.602Z,4.60
2018-07-06T02:35:03.165Z,3.97
2018-07-06T02:37:49.637Z,5.40
2018-07-06T02:40:36.135Z,4.53
2018-07-06T02:43:22.506Z,4.20
2018-07-06T02:46:08.997Z,4.70
2018-07-06T02:48:56.029Z,4.10
2018-07-06T02:51:42.618Z,4.80
2018-07-06T02:54:28.930Z,4.40
2018-07-06T02:57:15.258Z,4.83
2018-07-06T03:00:01.750Z,5.50
2018-07-06T03:02:48.262Z,4.40
2018-07-06T03:05:34.745Z,6.00
2018-07-06T03:08:21.072Z,6.10
2018-07-06T03:11:07.526Z,6.80
2018-07-06T03:13:48.092Z,7.30
2018-07-06T03:16:28.521Z,6.60
2018-07-06T03:19:14.923Z,6.50
2018-07-06T03:22:02.506Z,7.03
2018-07-06T03:24:49.221Z,7.40
2018-07-06T03:27:35.734Z,7.03
2018-07-06T03:30:22.353Z,6.60
2018-07-06T03:33:09.036Z,5.97
2018-07-06T03:35:55.487Z,6.73
2018-07-06T03:38:45.957Z,6.30
2018-07-06T03:41:32.542Z,6.57
2018-07-06T03:44:19.564Z,6.73
2018-07-06T03:47:06.101Z,7.23
2018-07-06T03:49:52.491Z,7.30
2018-07-06T03:52:38.887Z,7.30
2018-07-06T03:55:26.049Z,8.63
2018-07-06T03:58:12.654Z,7.53
2018-07-06T04:00:59.475Z,7.43
2018-07-06T04:03:46.144Z,7.87
2018-07-06T04:06:33.474Z,7.83
2018-07-06T04:09:20.323Z,7.93
2018-07-06T04:12:06.697Z,7.87
2018-07-06T04:14:53.088Z,7.57
2018-07-06T04:17:39.701Z,7.63
2018-07-06T04:20:26.471Z,8.13
2018-07-06T04:23:07.761Z,9.20
2018-07-06T04:25:54.508Z,9.17
2018-07-06T04:28:41.135Z,9.47
2018-07-06T04:31:27.743Z,9.07
2018-07-06T04:34:15.437Z,9.27
2018-07-06T04:37:02.049Z,9.10
2018-07-06T04:39:48.689Z,9.43
2018-07-06T04:42:35.397Z,8.40
2018-07-06T04:45:21.892Z,7.90
2018-07-06T04:48:08.352Z,8.03
2018-07-06T04:50:54.682Z,7.57
2018-07-06T04:53:41.501Z,8.60
2018-07-06T04:56:27.906Z,7.20
2018-07-06T04:59:14.538Z,7.13
2018-07-06T05:02:00.990Z,6.10
2018-07-06T05:04:47.514Z,6.53
2018-07-06T05:07:33.914Z,7.47
2018-07-06T05:10:20.244Z,7.50
2018-07-06T05:13:08.819Z,7.60
2018-07-06T05:15:55.482Z,7.57
2018-07-06T05:18:42.339Z,8.60
2018-07-06T05:21:29.506Z,8.00
2018-07-06T05:24:16.163Z,10.03
2018-07-06T05:27:02.740Z,9.77
2018-07-06T05:29:49.126Z,8.70
2018-07-06T05:32:35.745Z,8.83
2018-07-06T05:35:22.338Z,8.30
2018-07-06T05:38:09.047Z,9.77
2018-07-06T05:40:55.673Z,8.83
2018-07-06T05:43:42.154Z,9.80
2018-07-06T05:46:28.469Z,8.73
2018-07-06T05:49:14.775Z,8.70
2018-07-06T05:52:01.889Z,8.10
2018-07-06T05:54:48.370Z,9.50
2018-07-06T05:57:34.890Z,8.87
2018-07-06T06:00:21.604Z,9.60
2018-07-06T06:03:08.044Z,10.07
2018-07-06T06:05:54.933Z,9.07
2018-07-06T06:08:22.741Z,10.90
2018-07-06T06:10:52.769Z,10.63
2018-07-06T06:13:23.181Z,11.30
2018-07-06T06:15:54.821Z,11.90
2018-07-06T06:18:25.055Z,12.07
2018-07-06T06:20:55.766Z,10.97
2018-07-06T06:23:27.043Z,11.80
2018-07-06T06:25:56.548Z,12.97
2018-07-06T06:28:26.017Z,10.73
2018-07-06T06:30:57.405Z,11.47
2018-07-06T06:33:27.167Z,10.70
2018-07-06T06:35:56.992Z,11.97
2018-07-06T06:38:26.629Z,11.77
2018-07-06T06:40:56.557Z,10.13
2018-07-06T06:43:26.169Z,12.57
2018-07-06T06:45:55.805Z,10.30
2018-07-06T06:48:25.566Z,11.10
2018-07-06T06:50:55.211Z,11.13
2018-07-06T06:53:24.983Z,10.40
2018-07-06T06:55:55.518Z,9.77
2018-07-06T06:58:25.370Z,9.07
2018-07-06T07:00:55.080Z,9.30
2018-07-06T07:03:24.947Z,7.97
2018-07-06T07:05:54.754Z,8.00
2018-07-06T07:08:24.417Z,9.97
2018-07-06T07:10:53.952Z,7.17
2018-07-06T07:13:24.522Z,8.50
2018-07-06T07:15:54.372Z,7.33
2018-07-06T07:18:23.962Z,7.63
2018-07-06T07:20:54.036Z,6.97
2018-07-06T07:23:23.670Z,7.43
2018-07-06T07:25:53.488Z,8.20
2018-07-06T07:28:24.602Z,8.60
2018-07-06T07:30:55.341Z,7.40
2018-07-06T07:33:24.828Z,7.30
2018-07-06T07:35:55.177Z,7.10
2018-07-06T07:38:24.692Z,6.57
2018-07-06T07:40:54.402Z,7.40
2018-07-06T07:43:23.958Z,6.70
2018-07-06T07:45:53.904Z,6.80
2018-07-06T07:48:23.469Z,7.10
2018-07-06T07:51:10.030Z,7.07
2018-07-06T07:53:56.330Z,7.00
2018-07-06T07:56:26.423Z,7.70
2018-07-06T07:58:56.600Z,7.17
2018-07-06T08:01:26.191Z,6.53
2018-07-06T08:03:56.224Z,6.60
2018-07-06T08:06:25.782Z,8.00
2018-07-06T08:08:55.406Z,7.33
2018-07-06T08:11:25.525Z,5.93
2018-07-06T08:13:55.624Z,4.87
2018-07-06T08:16:25.016Z,5.53
2018-07-06T08:18:54.640Z,5.40
2018-07-06T08:21:24.330Z,4.77
2018-07-06T08:23:53.781Z,5.50
2018-07-06T08:26:23.430Z,5.50
2018-07-06T08:28:53.553Z,5.43
2018-07-06T08:31:23.071Z,5.67
2018-07-06T08:34:09.523Z,5.07
2018-07-06T08:38:07.255Z,4.20
2018-07-06T08:40:36.453Z,4.20
2018-07-06T08:43:06.874Z,4.17
2018-07-06T08:45:36.801Z,4.20
2018-07-06T08:48:06.285Z,4.30
2018-07-06T08:50:35.770Z,3.27
2018-07-06T08:53:05.218Z,4.57
2018-07-06T08:55:35.141Z,3.60
2018-07-06T08:58:04.635Z,3.60
2018-07-06T09:00:34.050Z,4.00
2018-07-06T09:03:03.837Z,3.60
2018-07-06T09:05:33.345Z,4.30
2018-07-06T09:08:02.927Z,3.33
2018-07-06T09:10:32.428Z,3.73
2018-07-06T09:13:02.257Z,4.20
2018-07-06T09:15:31.669Z,4.20
2018-07-06T09:18:01.783Z,3.20
2018-07-06T09:20:31.336Z,3.83
2018-07-06T09:23:00.882Z,5.17
2018-07-06T09:25:30.528Z,3.00
2018-07-06T09:27:59.925Z,3.47
2018-07-06T09:30:29.404Z,3.17
2018-07-06T09:32:58.818Z,2.77
2018-07-06T09:35:28.362Z,3.00
2018-07-06T09:37:57.821Z,2.70
2018-07-06T09:40:27.307Z,3.10
2018-07-06T09:42:57.466Z,2.90
2018-07-06T09:45:27.046Z,3.10
2018-07-06T09:47:56.589Z,3.37
2018-07-06T09:50:26.040Z,3.60
2018-07-06T09:52:55.722Z,2.80
2018-07-06T09:55:25.186Z,3.57
2018-07-06T09:57:54.758Z,5.47
2018-07-06T10:00:29.461Z,2.77
2018-07-06T10:02:58.905Z,2.93
2018-07-06T10:05:29.318Z,3.30
2018-07-06T10:07:58.870Z,3.67
2018-07-06T10:10:29.035Z,3.07
2018-07-06T10:12:58.212Z,3.07
2018-07-06T10:15:27.677Z,2.97
2018-07-06T10:17:58.246Z,3.10
2018-07-06T10:20:27.705Z,2.73
2018-07-06T10:22:57.150Z,2.97
2018-07-06T10:25:26.759Z,2.40
2018-07-06T10:29:10.925Z,2.33
2018-07-06T10:31:56.241Z,3.60
2018-07-06T10:34:25.617Z,3.20
2018-07-06T10:36:56.067Z,2.53
2018-07-06T10:39:26.193Z,3.00
2018-07-06T10:41:55.831Z,2.67
2018-07-06T10:44:25.375Z,2.90
2018-07-06T10:46:54.866Z,2.33
2018-07-06T10:49:25.393Z,3.13
2018-07-06T10:51:54.892Z,2.20
2018-07-06T10:54:24.452Z,2.67
2018-07-06T10:56:53.829Z,2.03
2018-07-06T10:59:24.187Z,2.53
2018-07-06T11:01:53.885Z,2.40
2018-07-06T11:04:23.041Z,1.97
2018-07-06T11:06:52.546Z,2.60
2018-07-06T11:09:22.119Z,2.80
2018-07-06T11:11:51.774Z,2.27
2018-07-06T11:14:21.512Z,2.43
2018-07-06T11:16:51.113Z,2.60
2018-07-06T11:19:20.712Z,2.50
2018-07-06T11:21:50.418Z,2.47
2018-07-06T11:24:19.920Z,3.23
2018-07-06T11:26:50.648Z,2.70
2018-07-06T11:29:20.657Z,2.90
2018-07-06T11:31:50.179Z,1.90
2018-07-06T11:34:19.900Z,2.20
2018-07-06T11:36:50.509Z,2.23
2018-07-06T11:39:22.566Z,3.10
2018-07-06T11:41:53.118Z,2.87
2018-07-06T11:44:26.016Z,2.93
2018-07-06T11:46:55.480Z,2.93
2018-07-06T11:49:25.180Z,2.30
2018-07-06T11:51:55.260Z,3.47
2018-07-06T11:54:24.749Z,2.80
2018-07-06T11:56:54.254Z,2.40
2018-07-06T11:59:23.638Z,2.47
2018-07-06T12:01:53.221Z,2.53
2018-07-06T12:04:23.067Z,2.97
2018-07-06T12:06:52.630Z,2.17
2018-07-06T12:09:22.819Z,2.37
2018-07-06T12:11:52.411Z,2.97
2018-07-06T12:14:21.921Z,2.20
2018-07-06T12:16:51.674Z,2.20
2018-07-06T12:19:21.754Z,2.70
2018-07-06T12:21:51.263Z,2.67
2018-07-06T12:24:20.866Z,2.27
2018-07-06T12:26:50.447Z,2.00
2018-07-06T12:29:19.927Z,3.00
2018-07-06T12:31:49.205Z,2.27
2018-07-06T12:34:18.764Z,2.40
2018-07-06T12:36:48.365Z,2.60
2018-07-06T12:39:17.789Z,2.83
2018-07-06T12:41:47.301Z,2.10
2018-07-06T12:44:17.097Z,2.30
2018-07-06T12:46:46.618Z,3.00
2018-07-06T12:49:16.082Z,2.60
2018-07-06T12:51:45.358Z,2.43
2018-07-06T12:54:15.030Z,2.53
2018-07-06T12:56:45.206Z,2.23
2018-07-06T12:59:14.758Z,3.10
2018-07-06T13:01:44.281Z,3.53
2018-07-06T13:04:13.997Z,2.37
2018-07-06T13:06:44.814Z,1.80
2018-07-06T13:09:14.326Z,2.20
2018-07-06T13:11:43.921Z,2.07
2018-07-06T13:14:13.429Z,1.90
2018-07-06T13:16:42.983Z,1.67
2018-07-06T13:19:12.868Z,2.00
2018-07-06T13:21:42.405Z,3.07
2018-07-06T13:24:11.980Z,2.43
2018-07-06T13:26:41.527Z,1.80
2018-07-06T13:29:11.013Z,1.93
2018-07-06T13:31:40.538Z,2.53
2018-07-06T13:34:10.283Z,2.30
2018-07-06T13:36:39.929Z,2.10
2018-07-06T13:39:09.576Z,2.77
2018-07-06T13:41:40.967Z,2.10
2018-07-06T13:44:10.484Z,2.30
2018-07-06T13:46:40.404Z,2.50
2018-07-06T13:49:09.964Z,2.23
2018-07-06T13:51:39.198Z,2.23
2018-07-06T13:54:09.367Z,2.37
2018-07-06T13:56:38.827Z,2.00
2018-07-06T13:59:08.445Z,2.33
2018-07-06T14:01:38.046Z,1.90
2018-07-06T14:04:07.548Z,2.33
2018-07-06T14:06:36.977Z,2.17
2018-07-06T14:09:07.520Z,1.80
2018-07-06T14:11:37.105Z,2.23
2018-07-06T14:14:06.710Z,2.50
2018-07-06T14:16:36.125Z,2.30
2018-07-06T14:19:05.649Z,2.70
2018-07-06T14:21:35.254Z,1.50
2018-07-06T14:24:04.842Z,2.00
2018-07-06T14:26:35.301Z,1.20
2018-07-06T14:29:04.893Z,2.20
2018-07-06T14:31:34.507Z,1.43
2018-07-06T14:34:04.137Z,2.03
2018-07-06T14:36:33.824Z,1.90
2018-07-06T14:39:03.359Z,1.90
2018-07-06T14:41:32.918Z,1.70
2018-07-06T14:44:02.481Z,2.50
2018-07-06T14:46:33.306Z,2.40
2018-07-06T14:49:03.080Z,1.90
2018-07-06T14:51:32.685Z,1.90
2018-07-06T14:54:02.116Z,2.00
2018-07-06T14:56:31.999Z,2.50
2018-07-06T14:59:01.395Z,2.13
2018-07-06T15:01:30.952Z,1.63
2018-07-06T15:04:00.649Z,1.30
2018-07-06T15:06:30.293Z,1.73
2018-07-06T15:08:59.805Z,1.37
2018-07-06T15:11:29.289Z,2.13
2018-07-06T15:13:58.753Z,1.50
2018-07-06T15:16:28.367Z,2.03
2018-07-06T15:18:57.929Z,1.97
2018-07-06T15:21:27.193Z,1.77
2018-07-06T15:23:56.694Z,1.90
2018-07-06T15:26:26.314Z,2.27
2018-07-06T15:28:56.858Z,1.83
2018-07-06T15:31:26.695Z,2.10
2018-07-06T15:33:56.777Z,2.20
2018-07-06T15:36:26.530Z,2.00
2018-07-06T15:38:55.910Z,1.80
2018-07-06T15:41:25.373Z,1.80
2018-07-06T15:43:54.978Z,2.17
2018-07-06T15:46:24.508Z,2.40
2018-07-06T15:48:53.960Z,2.60
2018-07-06T15:51:23.219Z,2.00
2018-07-06T15:53:52.798Z,1.73
2018-07-06T15:56:23.155Z,2.53
2018-07-06T15:58:52.660Z,2.20
2018-07-06T16:01:22.135Z,1.87
2018-07-06T16:03:51.709Z,1.57
2018-07-06T16:06:20.868Z,2.43
2018-07-06T16:08:50.394Z,3.23
2018-07-06T16:11:19.996Z,1.97
2018-07-06T16:13:49.684Z,2.40
2018-07-06T16:16:19.204Z,2.00
2018-07-06T16:18:49.032Z,2.00
2018-07-06T16:21:18.478Z,1.83
2018-07-06T16:23:48.172Z,1.90
2018-07-06T16:26:17.545Z,1.80
2018-07-06T16:28:47.114Z,2.20
2018-07-06T16:31:18.676Z,3.00
2018-07-06T16:33:48.276Z,1.63
2018-07-06T16:36:19.057Z,1.70
2018-07-06T16:38:53.855Z,2.20
2018-07-06T16:41:23.448Z,1.83
2018-07-06T16:43:54.007Z,2.10
2018-07-06T16:46:23.811Z,2.57
2018-07-06T16:48:53.438Z,2.17
2018-07-06T16:51:23.373Z,2.00
2018-07-06T16:53:53.057Z,2.70
2018-07-06T16:56:22.893Z,2.03
2018-07-06T16:58:52.962Z,2.70
2018-07-06T17:01:22.528Z,2.50
2018-07-06T17:03:52.322Z,2.20
2018-07-06T17:06:23.577Z,2.77
2018-07-06T17:08:53.029Z,2.10
2018-07-06T17:11:22.648Z,2.27
2018-07-06T17:13:52.258Z,1.80
2018-07-06T17:16:21.854Z,2.70
2018-07-06T17:18:51.471Z,2.33
2018-07-06T17:21:20.888Z,2.80
2018-07-06T17:23:50.408Z,2.73
2018-07-06T17:26:20.542Z,2.47
2018-07-06T17:28:50.050Z,2.40
2018-07-06T17:31:19.639Z,2.40
2018-07-06T17:33:49.236Z,2.93
2018-07-06T17:36:18.770Z,2.83
2018-07-06T17:38:48.325Z,2.20
2018-07-06T17:41:17.853Z,3.30
2018-07-06T17:43:47.550Z,2.50
2018-07-06T17:46:17.215Z,2.40
2018-07-06T17:48:47.297Z,2.00
2018-07-06T17:51:16.842Z,2.60
2018-07-06T17:53:46.362Z,3.10
2018-07-06T17:56:15.875Z,3.33
2018-07-06T17:58:45.849Z,2.50
2018-07-06T18:01:15.474Z,3.00
2018-07-06T18:03:44.993Z,2.70
2018-07-06T18:06:15.437Z,3.10
2018-07-06T18:08:44.930Z,1.90
2018-07-06T18:11:14.639Z,2.90
2018-07-06T18:13:44.275Z,2.50
2018-07-06T18:16:14.218Z,2.70
2018-07-06T18:18:43.742Z,3.33
2018-07-06T18:21:13.246Z,2.90
2018-07-06T18:23:42.827Z,3.13
2018-07-06T18:26:12.322Z,2.13
2018-07-06T18:28:41.453Z,2.70
2018-07-06T18:31:10.990Z,2.97
2018-07-06T18:33:40.677Z,2.53
2018-07-06T18:36:10.225Z,2.80
2018-07-06T18:38:40.034Z,3.10
2018-07-06T18:41:09.674Z,1.93
2018-07-06T18:43:39.185Z,2.67
2018-07-06T18:46:09.319Z,2.07
2018-07-06T18:48:38.846Z,2.30
2018-07-06T18:51:08.657Z,5.33
2018-07-06T18:53:39.006Z,3.03
2018-07-06T18:56:09.115Z,2.83
2018-07-06T18:58:39.354Z,2.80
2018-07-06T19:01:09.542Z,2.60
2018-07-06T19:03:39.220Z,3.33
2018-07-06T19:06:08.884Z,2.80
2018-07-06T19:08:38.328Z,2.50
2018-07-06T19:11:07.655Z,2.60
2018-07-06T19:13:37.098Z,3.07
2018-07-06T19:16:06.707Z,3.10
2018-07-06T19:18:36.345Z,2.63
2018-07-06T19:21:05.507Z,3.33
2018-07-06T19:23:34.938Z,2.57
2018-07-06T19:26:04.599Z,2.80
2018-07-06T19:28:34.151Z,3.10
2018-07-06T19:31:04.665Z,2.97
2018-07-06T19:33:34.157Z,3.20
2018-07-06T19:36:04.288Z,2.77
2018-07-06T19:38:33.833Z,3.27
2018-07-06T19:41:03.424Z,2.10
2018-07-06T19:43:34.024Z,3.37
2018-07-06T19:46:03.562Z,2.73
2018-07-06T19:48:33.466Z,4.23
2018-07-06T19:51:03.853Z,3.80
2018-07-06T19:53:33.649Z,2.70
2018-07-06T19:56:03.278Z,2.60
2018-07-06T19:58:33.714Z,2.70
2018-07-06T20:01:03.234Z,3.77
2018-07-06T20:03:32.890Z,2.90
2018-07-06T20:06:02.477Z,1.87
2018-07-06T20:08:31.989Z,3.40
2018-07-06T20:11:01.575Z,2.60
2018-07-06T20:13:31.393Z,3.23
2018-07-06T20:16:00.891Z,6.30
2018-07-06T20:18:30.813Z,3.97
2018-07-06T20:21:00.664Z,6.00
2018-07-06T20:23:30.898Z,3.07
2018-07-06T20:26:00.651Z,3.00
2018-07-06T20:28:30.188Z,2.87
2018-07-06T20:30:59.717Z,3.80
2018-07-06T20:33:29.136Z,2.60
2018-07-06T20:35:58.664Z,3.17
2018-07-06T20:38:28.270Z,2.37
2018-07-06T20:40:57.797Z,3.63
2018-07-06T20:43:27.254Z,3.97
2018-07-06T20:45:56.514Z,3.20
2018-07-06T20:48:26.101Z,2.60
2018-07-06T20:50:55.624Z,3.07
2018-07-06T20:53:26.113Z,3.57
2018-07-06T20:55:55.881Z,3.77
2018-07-06T20:58:25.372Z,2.63
2018-07-06T21:00:55.702Z,2.90
2018-07-06T21:03:25.300Z,3.33
2018-07-06T21:05:54.844Z,3.00
2018-07-06T21:08:24.392Z,10.10
2018-07-06T21:10:54.548Z,6.23
2018-07-06T21:13:25.093Z,4.80
2018-07-06T21:15:54.561Z,5.23
2018-07-06T21:18:24.595Z,3.70
2018-07-06T21:20:54.285Z,3.97
2018-07-06T21:23:23.814Z,3.03
2018-07-06T21:25:53.338Z,4.03
2018-07-06T21:28:23.009Z,3.10
2018-07-06T21:30:52.569Z,3.60
2018-07-06T21:33:22.051Z,4.20
2018-07-06T21:35:51.507Z,3.90
2018-07-06T21:38:21.369Z,3.00
2018-07-06T21:40:50.890Z,3.10
2018-07-06T21:43:20.370Z,3.50
2018-07-06T21:45:49.868Z,2.70
2018-07-06T21:48:19.407Z,3.60
2018-07-06T21:50:49.011Z,5.27
2018-07-06T21:53:19.020Z,3.10
2018-07-06T21:55:48.624Z,3.43
2018-07-06T21:58:18.360Z,3.27
2018-07-06T22:00:48.637Z,2.70
2018-07-06T22:03:18.203Z,3.20
2018-07-06T22:05:47.805Z,4.00
2018-07-06T22:08:17.328Z,3.17
2018-07-06T22:10:47.596Z,4.07
2018-07-06T22:13:17.138Z,4.47
2018-07-06T22:15:47.669Z,5.40
2018-07-06T22:18:18.615Z,4.20
2018-07-06T22:20:50.680Z,2.57
2018-07-06T22:23:20.164Z,3.40
2018-07-06T22:25:49.789Z,3.37
2018-07-06T22:28:19.280Z,3.50
2018-07-06T22:30:48.806Z,4.07
2018-07-06T22:33:18.789Z,4.03
2018-07-06T22:35:48.274Z,3.63
2018-07-06T22:38:17.785Z,5.40
2018-07-06T22:40:47.458Z,4.00
2018-07-06T22:43:17.176Z,3.30
2018-07-06T22:45:46.964Z,4.10
2018-07-06T22:48:17.011Z,3.27
2018-07-06T22:50:46.275Z,4.40
2018-07-06T22:53:16.438Z,4.27
2018-07-06T22:55:46.094Z,3.63
2018-07-06T22:58:15.596Z,3.73
2018-07-06T23:00:45.129Z,3.90
2018-07-06T23:03:15.389Z,3.03
2018-07-06T23:05:45.786Z,4.37
2018-07-06T23:08:15.242Z,3.10
2018-07-06T23:10:44.769Z,3.83
2018-07-06T23:13:14.300Z,3.00
2018-07-06T23:15:43.905Z,5.10
2018-07-06T23:18:13.536Z,2.20
2018-07-06T23:20:42.710Z,3.27
2018-07-06T23:23:13.336Z,3.33
2018-07-06T23:25:45.104Z,3.13
2018-07-06T23:28:17.062Z,4.90
2018-07-06T23:30:47.201Z,4.13
2018-07-06T23:33:16.716Z,3.70
2018-07-06T23:35:46.177Z,3.20
2018-07-06T23:38:16.854Z,2.90
2018-07-06T23:40:46.318Z,4.10
2018-07-06T23:43:16.854Z,3.70
2018-07-06T23:45:46.362Z,3.27
2018-07-06T23:48:15.896Z,3.23
2018-07-06T23:50:45.416Z,4.00
2018-07-06T23:53:15.188Z,3.63
2018-07-06T23:55:44.786Z,3.87
2018-07-06T23:58:14.325Z,4.17
